sensor_id;sensor_type;location;lat;lon;timestamp;pressure;altitude;pressure_sealevel;temperature;humidity
17855;BME280;9053;53.358;6.382;2022-10-16T00:00:41;100700.94;;;13.76;100.00
17855;BME280;9053;53.358;6.382;2022-10-16T00:03:12;100698.25;;;13.74;100.00
17855;BME280;9053;53.358;6.382;2022-10-16T00:05:42;100700.94;;;13.76;100.00
17855;BME280;9053;53.358;6.382;2022-10-16T00:08:12;100694.75;;;13.75;100.00
17855;BME280;9053;53.358;6.382;2022-10-16T00:10:42;100692.09;;;13.75;100.00
17855;BME280;9053;53.358;6.382;2022-10-16T00:13:12;100695.66;;;13.76;100.00
17855;BME280;9053;53.358;6.382;2022-10-16T00:15:46;100692.97;;;13.74;100.00
17855;BME280;9053;53.358;6.382;2022-10-16T00:18:16;100692.09;;;13.74;100.00
17855;BME280;9053;53.358;6.382;2022-10-16T00:20:45;100697.38;;;13.74;100.00
17855;BME280;9053;53.358;6.382;2022-10-16T00:23:15;100684.13;;;13.72;100.00
17855;BME280;9053;53.358;6.382;2022-10-16T00:25:45;100685.00;;;13.71;100.00
17855;BME280;9053;53.358;6.382;2022-10-16T00:28:23;100688.47;;;13.69;100.00
17855;BME280;9053;53.358;6.382;2022-10-16T00:30:56;100688.47;;;13.69;100.00
17855;BME280;9053;53.358;6.382;2022-10-16T00:33:25;100684.03;;;13.66;100.00
17855;BME280;9053;53.358;6.382;2022-10-16T00:35:57;100691.03;;;13.66;100.00
17855;BME280;9053;53.358;6.382;2022-10-16T00:38:27;100682.22;;;13.65;100.00
17855;BME280;9053;53.358;6.382;2022-10-16T00:40:57;100684.84;;;13.63;100.00
17855;BME280;9053;53.358;6.382;2022-10-16T00:43:37;100679.53;;;13.62;100.00
17855;BME280;9053;53.358;6.382;2022-10-16T00:46:15;100678.59;;;13.60;100.00
17855;BME280;9053;53.358;6.382;2022-10-16T00:48:51;100677.72;;;13.59;100.00
17855;BME280;9053;53.358;6.382;2022-10-16T00:51:23;100682.13;;;13.60;100.00
17855;BME280;9053;53.358;6.382;2022-10-16T00:53:55;100690.94;;;13.59;100.00
17855;BME280;9053;53.358;6.382;2022-10-16T00:56:26;100683.88;;;13.60;100.00
17855;BME280;9053;53.358;6.382;2022-10-16T00:58:55;100680.31;;;13.58;100.00
17855;BME280;9053;53.358;6.382;2022-10-16T01:01:28;100672.38;;;13.58;100.00
17855;BME280;9053;53.358;6.382;2022-10-16T01:03:58;100675.03;;;13.58;100.00
17855;BME280;9053;53.358;6.382;2022-10-16T01:06:32;100673.25;;;13.57;100.00
17855;BME280;9053;53.358;6.382;2022-10-16T01:09:12;100673.25;;;13.57;100.00
17855;BME280;9053;53.358;6.382;2022-10-16T01:11:54;100667.97;;;13.57;100.00
17855;BME280;9053;53.358;6.382;2022-10-16T01:14:38;100669.69;;;13.55;100.00
17855;BME280;9053;53.358;6.382;2022-10-16T01:17:16;100677.63;;;13.53;100.00
17855;BME280;9053;53.358;6.382;2022-10-16T01:20:03;100676.69;;;13.53;100.00
17855;BME280;9053;53.358;6.382;2022-10-16T01:22:40;100682.84;;;13.52;100.00
17855;BME280;9053;53.358;6.382;2022-10-16T01:25:18;100686.38;;;13.52;100.00
17855;BME280;9053;53.358;6.382;2022-10-16T01:27:55;100682.84;;;13.52;100.00
17855;BME280;9053;53.358;6.382;2022-10-16T01:30:30;100680.22;;;13.52;100.00
17855;BME280;9053;53.358;6.382;2022-10-16T01:33:05;100682.84;;;13.52;100.00
17855;BME280;9053;53.358;6.382;2022-10-16T01:35:41;100688.13;;;13.52;100.00
17855;BME280;9053;53.358;6.382;2022-10-16T01:38:15;100689.91;;;13.53;100.00
17855;BME280;9053;53.358;6.382;2022-10-16T01:40:49;100695.28;;;13.56;100.00
17855;BME280;9053;53.358;6.382;2022-10-16T01:43:26;100688.25;;;13.58;100.00
17855;BME280;9053;53.358;6.382;2022-10-16T01:45:59;100689.16;;;13.60;100.00
17855;BME280;9053;53.358;6.382;2022-10-16T01:48:31;100689.16;;;13.60;100.00
17855;BME280;9053;53.358;6.382;2022-10-16T01:51:06;100697.13;;;13.61;100.00
17855;BME280;9053;53.358;6.382;2022-10-16T01:53:37;100690.09;;;13.62;100.00
17855;BME280;9053;53.358;6.382;2022-10-16T01:56:10;100700.72;;;13.65;100.00
17855;BME280;9053;53.358;6.382;2022-10-16T01:58:47;100705.16;;;13.66;100.00
17855;BME280;9053;53.358;6.382;2022-10-16T02:01:20;100710.44;;;13.66;100.00
17855;BME280;9053;53.358;6.382;2022-10-16T02:03:53;100706.97;;;13.69;100.00
17855;BME280;9053;53.358;6.382;2022-10-16T02:06:25;100703.50;;;13.71;100.00
17855;BME280;9053;53.358;6.382;2022-10-16T02:08:56;100706.13;;;13.71;100.00
17855;BME280;9053;53.358;6.382;2022-10-16T02:11:26;100705.31;;;13.74;100.00
17855;BME280;9053;53.358;6.382;2022-10-16T02:14:01;100710.59;;;13.75;100.00
17855;BME280;9053;53.358;6.382;2022-10-16T02:16:34;100723.84;;;13.77;100.00
17855;BME280;9053;53.358;6.382;2022-10-16T02:19:04;100729.09;;;13.75;100.00
17855;BME280;9053;53.358;6.382;2022-10-16T02:21:40;100731.72;;;13.74;100.00
17855;BME280;9053;53.358;6.382;2022-10-16T02:24:17;100730.81;;;13.72;100.00
17855;BME280;9053;53.358;6.382;2022-10-16T02:26:51;100722.00;;;13.71;100.00
17855;BME280;9053;53.358;6.382;2022-10-16T02:29:26;100712.31;;;13.73;100.00
17855;BME280;9053;53.358;6.382;2022-10-16T02:31:58;100710.59;;;13.74;100.00
17855;BME280;9053;53.358;6.382;2022-10-16T02:34:30;100702.66;;;13.75;100.00
17855;BME280;9053;53.358;6.382;2022-10-16T02:37:01;100717.69;;;13.78;100.00
17855;BME280;9053;53.358;6.382;2022-10-16T02:39:34;100717.72;;;13.79;100.00
17855;BME280;9053;53.358;6.382;2022-10-16T02:42:04;100726.53;;;13.78;100.00
17855;BME280;9053;53.358;6.382;2022-10-16T02:44:36;100736.19;;;13.78;100.00
17855;BME280;9053;53.358;6.382;2022-10-16T02:47:06;100739.75;;;13.78;100.00
17855;BME280;9053;53.358;6.382;2022-10-16T02:49:39;100732.66;;;13.77;100.00
17855;BME280;9053;53.358;6.382;2022-10-16T02:52:09;100733.56;;;13.78;100.00
17855;BME280;9053;53.358;6.382;2022-10-16T02:54:38;100727.38;;;13.77;100.00
17855;BME280;9053;53.358;6.382;2022-10-16T02:57:08;100722.13;;;13.79;100.00
17855;BME280;9053;53.358;6.382;2022-10-16T02:59:41;100722.13;;;13.79;100.00
17855;BME280;9053;53.358;6.382;2022-10-16T03:02:10;100721.25;;;13.78;100.00
17855;BME280;9053;53.358;6.382;2022-10-16T03:04:40;100734.47;;;13.80;100.00
17855;BME280;9053;53.358;6.382;2022-10-16T03:07:10;100723.91;;;13.80;100.00
17855;BME280;9053;53.358;6.382;2022-10-16T03:09:40;100723.94;;;13.81;100.00
17855;BME280;9053;53.358;6.382;2022-10-16T03:12:09;100724.84;;;13.82;100.00
17855;BME280;9053;53.358;6.382;2022-10-16T03:14:42;100721.31;;;13.83;100.00
17855;BME280;9053;53.358;6.382;2022-10-16T03:17:11;100730.16;;;13.83;100.00
17855;BME280;9053;53.358;6.382;2022-10-16T03:19:43;100723.97;;;13.83;100.00
17855;BME280;9053;53.358;6.382;2022-10-16T03:22:13;100724.88;;;13.83;100.00
17855;BME280;9053;53.358;6.382;2022-10-16T03:24:43;100726.59;;;13.81;100.00
17855;BME280;9053;53.358;6.382;2022-10-16T03:27:13;100730.06;;;13.80;100.00
17855;BME280;9053;53.358;6.382;2022-10-16T03:29:45;100729.19;;;13.78;100.00
17855;BME280;9053;53.358;6.382;2022-10-16T03:32:15;100721.16;;;13.75;100.00
17855;BME280;9053;53.358;6.382;2022-10-16T03:34:45;100718.50;;;13.74;100.00
17855;BME280;9053;53.358;6.382;2022-10-16T03:37:14;100716.72;;;13.71;100.00
17855;BME280;9053;53.358;6.382;2022-10-16T03:39:44;100724.59;;;13.70;100.00
17855;BME280;9053;53.358;6.382;2022-10-16T03:42:14;100720.13;;;13.67;100.00
17855;BME280;9053;53.358;6.382;2022-10-16T03:44:46;100717.44;;;13.64;100.00
17855;BME280;9053;53.358;6.382;2022-10-16T03:47:16;100733.25;;;13.61;100.00
17855;BME280;9053;53.358;6.382;2022-10-16T03:49:48;100731.41;;;13.57;100.00
17855;BME280;9053;53.358;6.382;2022-10-16T03:52:18;100736.63;;;13.54;100.00
17855;BME280;9053;53.358;6.382;2022-10-16T03:54:47;100733.06;;;13.52;100.00
17855;BME280;9053;53.358;6.382;2022-10-16T03:57:17;100737.41;;;13.50;100.00
17855;BME280;9053;53.358;6.382;2022-10-16T03:59:50;100735.59;;;13.47;100.00
17855;BME280;9053;53.358;6.382;2022-10-16T04:02:20;100742.59;;;13.45;100.00
17855;BME280;9053;53.358;6.382;2022-10-16T04:04:49;100738.13;;;13.42;100.00
17855;BME280;9053;53.358;6.382;2022-10-16T04:07:19;100743.41;;;13.42;100.00
17855;BME280;9053;53.358;6.382;2022-10-16T04:09:49;100745.13;;;13.40;100.00
17855;BME280;9053;53.358;6.382;2022-10-16T04:12:20;100745.13;;;13.40;100.00
17855;BME280;9053;53.358;6.382;2022-10-16T04:14:52;100742.50;;;13.40;100.00
17855;BME280;9053;53.358;6.382;2022-10-16T04:17:22;100744.28;;;13.41;100.00
17855;BME280;9053;53.358;6.382;2022-10-16T04:19:52;100750.50;;;13.44;100.00
17855;BME280;9053;53.358;6.382;2022-10-16T04:22:21;100755.78;;;13.44;100.00
17855;BME280;9053;53.358;6.382;2022-10-16T04:25:11;100764.56;;;13.42;100.00
17855;BME280;9053;53.358;6.382;2022-10-16T04:27:41;100765.44;;;13.41;100.00
17855;BME280;9053;53.358;6.382;2022-10-16T04:30:14;100768.97;;;13.42;100.00
17855;BME280;9053;53.358;6.382;2022-10-16T04:32:47;100768.13;;;13.43;100.00
17855;BME280;9053;53.358;6.382;2022-10-16T04:35:18;100786.59;;;13.43;100.00
17855;BME280;9053;53.358;6.382;2022-10-16T04:37:47;100766.38;;;13.44;100.00
17855;BME280;9053;53.358;6.382;2022-10-16T04:40:17;100773.41;;;13.45;100.00
17855;BME280;9053;53.358;6.382;2022-10-16T04:42:47;100788.38;;;13.44;100.00
17855;BME280;9053;53.358;6.382;2022-10-16T04:45:19;100788.44;;;13.46;100.00
17855;BME280;9053;53.358;6.382;2022-10-16T04:47:49;100777.84;;;13.46;100.00
17855;BME280;9053;53.358;6.382;2022-10-16T04:50:18;100780.50;;;13.46;100.00
17855;BME280;9053;53.358;6.382;2022-10-16T04:52:48;100788.44;;;13.46;100.00
17855;BME280;9053;53.358;6.382;2022-10-16T04:55:18;100782.31;;;13.48;100.00
17855;BME280;9053;53.358;6.382;2022-10-16T04:57:48;100777.91;;;13.49;100.00
17855;BME280;9053;53.358;6.382;2022-10-16T05:00:20;100783.19;;;13.49;100.00
17855;BME280;9053;53.358;6.382;2022-10-16T05:02:50;100787.59;;;13.50;100.00
17855;BME280;9053;53.358;6.382;2022-10-16T05:05:20;100770.91;;;13.51;100.00
17855;BME280;9053;53.358;6.382;2022-10-16T05:07:49;100761.19;;;13.50;100.00
17855;BME280;9053;53.358;6.382;2022-10-16T05:10:19;100783.25;;;13.52;100.00
17855;BME280;9053;53.358;6.382;2022-10-16T05:12:49;100791.19;;;13.52;100.00
17855;BME280;9053;53.358;6.382;2022-10-16T05:15:21;100797.41;;;13.54;100.00
17855;BME280;9053;53.358;6.382;2022-10-16T05:17:54;100793.03;;;13.56;100.00
17855;BME280;9053;53.358;6.382;2022-10-16T05:20:24;100806.25;;;13.56;100.00
17855;BME280;9053;53.358;6.382;2022-10-16T05:22:54;100811.53;;;13.56;100.00
17855;BME280;9053;53.358;6.382;2022-10-16T05:25:24;100814.19;;;13.57;100.00
17855;BME280;9053;53.358;6.382;2022-10-16T05:27:54;100818.63;;;13.58;100.00
17855;BME280;9053;53.358;6.382;2022-10-16T05:30:26;100819.53;;;13.60;100.00
17855;BME280;9053;53.358;6.382;2022-10-16T05:32:56;100816.00;;;13.60;100.00
17855;BME280;9053;53.358;6.382;2022-10-16T05:35:25;100827.47;;;13.60;100.00
17855;BME280;9053;53.358;6.382;2022-10-16T05:37:55;100830.97;;;13.59;100.00
17855;BME280;9053;53.358;6.382;2022-10-16T05:40:25;100830.09;;;13.60;100.00
17855;BME280;9053;53.358;6.382;2022-10-16T05:42:55;100838.06;;;13.62;100.00
17855;BME280;9053;53.358;6.382;2022-10-16T05:45:27;100836.31;;;13.62;100.00
17855;BME280;9053;53.358;6.382;2022-10-16T05:47:57;100840.72;;;13.62;100.00
17855;BME280;9053;53.358;6.382;2022-10-16T05:50:27;100849.53;;;13.62;100.00
17855;BME280;9053;53.358;6.382;2022-10-16T05:52:56;100845.13;;;13.63;100.00
17855;BME280;9053;53.358;6.382;2022-10-16T05:55:26;100842.50;;;13.63;100.00
17855;BME280;9053;53.358;6.382;2022-10-16T05:57:56;100840.72;;;13.62;100.00
17855;BME280;9053;53.358;6.382;2022-10-16T06:00:28;100837.19;;;13.61;100.00
17855;BME280;9053;53.358;6.382;2022-10-16T06:02:58;100841.59;;;13.61;100.00
17855;BME280;9053;53.358;6.382;2022-10-16T06:05:29;100838.84;;;13.58;100.00
17855;BME280;9053;53.358;6.382;2022-10-16T06:07:58;100844.06;;;13.55;100.00
17855;BME280;9053;53.358;6.382;2022-10-16T06:10:28;100850.22;;;13.54;100.00
17855;BME280;9053;53.358;6.382;2022-10-16T06:12:58;100851.06;;;13.53;100.00
17855;BME280;9053;53.358;6.382;2022-10-16T06:15:30;100868.69;;;13.52;100.00
17855;BME280;9053;53.358;6.382;2022-10-16T06:18:00;100868.66;;;13.51;100.00
17855;BME280;9053;53.358;6.382;2022-10-16T06:20:29;100856.31;;;13.50;100.00
17855;BME280;9053;53.358;6.382;2022-10-16T06:22:59;100858.94;;;13.50;100.00
17855;BME280;9053;53.358;6.382;2022-10-16T06:25:30;100856.34;;;13.51;100.00
17855;BME280;9053;53.358;6.382;2022-10-16T06:28:00;100859.88;;;13.52;100.00
17855;BME280;9053;53.358;6.382;2022-10-16T06:30:32;100860.75;;;13.52;100.00
17855;BME280;9053;53.358;6.382;2022-10-16T06:33:02;100866.97;;;13.54;100.00
17855;BME280;9053;53.358;6.382;2022-10-16T06:35:32;100871.38;;;13.54;100.00
17855;BME280;9053;53.358;6.382;2022-10-16T06:38:02;100869.63;;;13.54;100.00
17855;BME280;9053;53.358;6.382;2022-10-16T06:40:31;100874.91;;;13.54;100.00
17855;BME280;9053;53.358;6.382;2022-10-16T06:43:01;100873.16;;;13.55;100.00
17855;BME280;9053;53.358;6.382;2022-10-16T06:45:33;100871.38;;;13.55;100.00
17855;BME280;9053;53.358;6.382;2022-10-16T06:48:03;100870.50;;;13.55;100.00
17855;BME280;9053;53.358;6.382;2022-10-16T06:50:33;100879.38;;;13.57;100.00
17855;BME280;9053;53.358;6.382;2022-10-16T06:53:03;100881.13;;;13.58;100.00
17855;BME280;9053;53.358;6.382;2022-10-16T06:55:32;100885.53;;;13.57;100.00
17855;BME280;9053;53.358;6.382;2022-10-16T06:58:02;100895.28;;;13.60;100.00
17855;BME280;9053;53.358;6.382;2022-10-16T07:00:34;100901.44;;;13.60;100.00
17855;BME280;9053;53.358;6.382;2022-10-16T07:03:04;100910.28;;;13.61;100.00
17855;BME280;9053;53.358;6.382;2022-10-16T07:05:37;100915.63;;;13.64;100.00
17855;BME280;9053;53.358;6.382;2022-10-16T07:08:07;100920.94;;;13.64;100.00
17855;BME280;9053;53.358;6.382;2022-10-16T07:10:37;100929.78;;;13.66;100.00
17855;BME280;9053;53.358;6.382;2022-10-16T07:13:07;100928.03;;;13.67;100.00
17855;BME280;9053;53.358;6.382;2022-10-16T07:15:42;100929.78;;;13.66;100.00
17855;BME280;9053;53.358;6.382;2022-10-16T07:18:12;100941.25;;;13.67;100.00
17855;BME280;9053;53.358;6.382;2022-10-16T07:20:41;100950.06;;;13.67;100.00
17855;BME280;9053;53.358;6.382;2022-10-16T07:23:11;100948.25;;;13.64;100.00
17855;BME280;9053;53.358;6.382;2022-10-16T07:25:41;100958.84;;;13.66;100.00
17855;BME280;9053;53.358;6.382;2022-10-16T07:28:11;100952.66;;;13.66;100.00
17855;BME280;9053;53.358;6.382;2022-10-16T07:30:43;100956.22;;;13.66;100.00
17855;BME280;9053;53.358;6.382;2022-10-16T07:33:13;100955.34;;;13.67;100.00
17855;BME280;9053;53.358;6.382;2022-10-16T07:35:50;100961.50;;;13.66;100.00
17855;BME280;9053;53.358;6.382;2022-10-16T07:38:21;100971.19;;;13.67;100.00
17855;BME280;9053;53.358;6.382;2022-10-16T07:40:56;100960.69;;;13.69;100.00
17855;BME280;9053;53.358;6.382;2022-10-16T07:43:26;100960.69;;;13.70;100.00
17855;BME280;9053;53.358;6.382;2022-10-16T07:45:59;100985.41;;;13.72;100.00
17855;BME280;9053;53.358;6.382;2022-10-16T07:48:33;100981.00;;;13.73;100.00
17855;BME280;9053;53.358;6.382;2022-10-16T07:51:05;100989.88;;;13.75;100.00
17855;BME280;9053;53.358;6.382;2022-10-16T07:53:35;100986.41;;;13.76;100.00
17855;BME280;9053;53.358;6.382;2022-10-16T07:56:07;100982.00;;;13.78;100.00
17855;BME280;9053;53.358;6.382;2022-10-16T07:58:37;100985.63;;;13.81;100.00
17855;BME280;9053;53.358;6.382;2022-10-16T08:01:11;100982.19;;;13.85;100.00
17855;BME280;9053;53.358;6.382;2022-10-16T08:03:42;100989.34;;;13.90;100.00
17855;BME280;9053;53.358;6.382;2022-10-16T08:06:11;101000.88;;;13.93;100.00
17855;BME280;9053;53.358;6.382;2022-10-16T08:08:41;101001.03;;;13.99;100.00
17855;BME280;9053;53.358;6.382;2022-10-16T08:11:11;101008.13;;;14.02;100.00
17855;BME280;9053;53.358;6.382;2022-10-16T08:13:41;101014.41;;;14.07;100.00
17855;BME280;9053;53.358;6.382;2022-10-16T08:16:14;101020.69;;;14.12;100.00
17855;BME280;9053;53.358;6.382;2022-10-16T08:18:44;101029.69;;;14.20;100.00
17855;BME280;9053;53.358;6.382;2022-10-16T08:21:16;101038.66;;;14.27;100.00
17855;BME280;9053;53.358;6.382;2022-10-16T08:23:47;101037.88;;;14.33;100.00
17855;BME280;9053;53.358;6.382;2022-10-16T08:26:24;101039.75;;;14.38;100.00
17855;BME280;9053;53.358;6.382;2022-10-16T08:28:54;101045.94;;;14.39;100.00
17855;BME280;9053;53.358;6.382;2022-10-16T08:31:27;101059.25;;;14.42;100.00
17855;BME280;9053;53.358;6.382;2022-10-16T08:33:57;101055.69;;;14.40;100.00
17855;BME280;9053;53.358;6.382;2022-10-16T08:36:26;101068.97;;;14.41;100.00
17855;BME280;9053;53.358;6.382;2022-10-16T08:38:56;101061.91;;;14.42;100.00
17855;BME280;9053;53.358;6.382;2022-10-16T08:41:53;101068.13;;;14.44;100.00
17855;BME280;9053;53.358;6.382;2022-10-16T08:47:44;101074.44;;;14.50;100.00
17855;BME280;9053;53.358;6.382;2022-10-16T08:50:20;101086.88;;;14.53;100.00
17855;BME280;9053;53.358;6.382;2022-10-16T08:52:51;101084.28;;;14.56;100.00
17855;BME280;9053;53.358;6.382;2022-10-16T08:55:29;101090.56;;;14.61;100.00
17855;BME280;9053;53.358;6.382;2022-10-16T08:58:00;101102.97;;;14.62;100.00
17855;BME280;9053;53.358;6.382;2022-10-16T09:00:30;101109.09;;;14.61;100.00
17855;BME280;9053;53.358;6.382;2022-10-16T09:03:13;101108.31;;;14.65;100.00
17855;BME280;9053;53.358;6.382;2022-10-16T09:08:46;101112.72;;;14.66;100.00
17855;BME280;9053;53.358;6.382;2022-10-16T09:11:26;101119.00;;;14.70;100.00
17855;BME280;9053;53.358;6.382;2022-10-16T09:14:06;101134.06;;;14.73;100.00
17855;BME280;9053;53.358;6.382;2022-10-16T09:16:41;101134.13;;;14.76;100.00
17855;BME280;9053;53.358;6.382;2022-10-16T09:19:20;101128.88;;;14.79;100.00
17855;BME280;9053;53.358;6.382;2022-10-16T09:21:53;101140.44;;;14.82;100.00
17855;BME280;9053;53.358;6.382;2022-10-16T09:24:25;101143.19;;;14.87;100.00
17855;BME280;9053;53.358;6.382;2022-10-16T09:26:55;101147.66;;;14.89;100.00
17855;BME280;9053;53.358;6.382;2022-10-16T09:29:25;101151.31;;;14.95;100.00
17855;BME280;9053;53.358;6.382;2022-10-16T09:31:57;101154.06;;;15.01;100.00
17855;BME280;9053;53.358;6.382;2022-10-16T09:34:42;101146.19;;;15.04;100.00
17855;BME280;9053;53.358;6.382;2022-10-16T09:37:16;101149.81;;;15.09;100.00
17855;BME280;9053;53.358;6.382;2022-10-16T09:39:49;101162.25;;;15.13;100.00
17855;BME280;9053;53.358;6.382;2022-10-16T09:42:21;101166.78;;;15.19;100.00
17855;BME280;9053;53.358;6.382;2022-10-16T09:44:53;101157.16;;;15.22;100.00
17855;BME280;9053;53.358;6.382;2022-10-16T09:47:25;101167.81;;;15.27;100.00
17855;BME280;9053;53.358;6.382;2022-10-16T09:50:00;101167.97;;;15.33;100.00
17855;BME280;9053;53.358;6.382;2022-10-16T09:52:33;101162.72;;;15.36;100.00
17855;BME280;9053;53.358;6.382;2022-10-16T09:55:14;101169.00;;;15.41;100.00
17855;BME280;9053;53.358;6.382;2022-10-16T09:57:50;101169.03;;;15.44;100.00
17855;BME280;9053;53.358;6.382;2022-10-16T10:00:21;101174.44;;;15.47;100.00
17855;BME280;9053;53.358;6.382;2022-10-16T10:02:52;101171.84;;;15.52;100.00
17855;BME280;9053;53.358;6.382;2022-10-16T10:05:27;101176.34;;;15.56;100.00
17855;BME280;9053;53.358;6.382;2022-10-16T10:07:58;101180.88;;;15.62;100.00
17855;BME280;9053;53.358;6.382;2022-10-16T10:10:36;101183.56;;;15.65;100.00
17855;BME280;9053;53.358;6.382;2022-10-16T10:13:17;101202.25;;;15.69;100.00
17855;BME280;9053;53.358;6.382;2022-10-16T10:15:50;101202.25;;;15.69;100.00
17855;BME280;9053;53.358;6.382;2022-10-16T10:18:21;101200.44;;;15.68;100.00
17855;BME280;9053;53.358;6.382;2022-10-16T10:21:02;101199.56;;;15.68;100.00
17855;BME280;9053;53.358;6.382;2022-10-16T10:23:32;101213.66;;;15.67;100.00
17855;BME280;9053;53.358;6.382;2022-10-16T10:26:06;101221.63;;;15.67;100.00
17855;BME280;9053;53.358;6.382;2022-10-16T10:28:53;101213.78;;;15.71;100.00
17855;BME280;9053;53.358;6.382;2022-10-16T10:31:29;101219.03;;;15.70;100.00
17855;BME280;9053;53.358;6.382;2022-10-16T10:34:14;101226.06;;;15.68;100.00
17855;BME280;9053;53.358;6.382;2022-10-16T10:36:54;101216.31;;;15.65;100.00
17855;BME280;9053;53.358;6.382;2022-10-16T10:39:30;101227.78;;;15.66;100.00
17855;BME280;9053;53.358;6.382;2022-10-16T10:42:16;101226.06;;;15.68;100.00
17855;BME280;9053;53.358;6.382;2022-10-16T10:44:57;101227.09;;;15.73;100.00
17855;BME280;9053;53.358;6.382;2022-10-16T10:47:38;101233.41;;;15.81;100.00
17855;BME280;9053;53.358;6.382;2022-10-16T10:50:19;101244.16;;;15.89;100.00
17855;BME280;9053;53.358;6.382;2022-10-16T10:52:59;101249.56;;;15.93;100.00
17855;BME280;9053;53.358;6.382;2022-10-16T10:55:39;101261.06;;;15.94;100.00
17855;BME280;9053;53.358;6.382;2022-10-16T11:01:10;101271.63;;;15.91;100.00
17855;BME280;9053;53.358;6.382;2022-10-16T11:03:48;101281.22;;;15.84;100.00
17855;BME280;9053;53.358;6.382;2022-10-16T11:06:26;101279.28;;;15.77;100.00
17855;BME280;9053;53.358;6.382;2022-10-16T11:09:03;101280.97;;;15.72;100.00
17855;BME280;9053;53.358;6.382;2022-10-16T11:11:42;101283.41;;;15.63;100.00
17855;BME280;9053;53.358;6.382;2022-10-16T11:14:16;101288.56;;;15.56;100.00
17855;BME280;9053;53.358;6.382;2022-10-16T11:16:52;101281.56;;;15.58;100.00
17855;BME280;9053;53.358;6.382;2022-10-16T11:19:33;101289.56;;;15.62;100.00
17855;BME280;9053;53.358;6.382;2022-10-16T11:22:13;101297.75;;;15.71;100.00
17855;BME280;9053;53.358;6.382;2022-10-16T11:24:50;101309.41;;;15.79;100.00
17855;BME280;9053;53.358;6.382;2022-10-16T11:27:26;101307.78;;;15.87;100.00
17855;BME280;9053;53.358;6.382;2022-10-16T11:29:59;101302.63;;;15.93;100.00
17855;BME280;9053;53.358;6.382;2022-10-16T11:32:35;101318.47;;;15.92;100.00
17855;BME280;9053;53.358;6.382;2022-10-16T11:35:15;101318.44;;;15.89;100.00
17855;BME280;9053;53.358;6.382;2022-10-16T11:37:48;101319.25;;;15.86;100.00
17855;BME280;9053;53.358;6.382;2022-10-16T11:40:28;101329.88;;;15.86;100.00
17855;BME280;9053;53.358;6.382;2022-10-16T11:43:06;101326.34;;;15.87;100.00
17855;BME280;9053;53.358;6.382;2022-10-16T11:45:44;101323.63;;;15.84;100.00
17855;BME280;9053;53.358;6.382;2022-10-16T11:48:23;101327.22;;;15.86;100.00
17855;BME280;9053;53.358;6.382;2022-10-16T11:50:58;101328.94;;;15.84;100.00
17855;BME280;9053;53.358;6.382;2022-10-16T11:53:41;101339.59;;;15.87;100.00
17855;BME280;9053;53.358;6.382;2022-10-16T11:56:18;101336.22;;;15.94;100.00
17855;BME280;9053;53.358;6.382;2022-10-16T11:58:55;101345.16;;;15.98;100.00
17855;BME280;9053;53.358;6.382;2022-10-16T12:01:31;101341.72;;;16.04;100.00
17855;BME280;9053;53.358;6.382;2022-10-16T12:04:14;101348.94;;;16.12;100.00
17855;BME280;9053;53.358;6.382;2022-10-16T12:06:48;101351.75;;;16.20;100.00
17855;BME280;9053;53.358;6.382;2022-10-16T12:09:22;101352.75;;;16.27;100.00
17855;BME280;9053;53.358;6.382;2022-10-16T12:11:57;101359.97;;;16.34;100.00
17855;BME280;9053;53.358;6.382;2022-10-16T12:14:39;101365.34;;;16.37;100.00
17855;BME280;9053;53.358;6.382;2022-10-16T12:17:36;101373.34;;;16.38;100.00
17855;BME280;9053;53.358;6.382;2022-10-16T12:20:27;101378.69;;;16.41;100.00
17855;BME280;9053;53.358;6.382;2022-10-16T12:22:59;101376.97;;;16.45;100.00
17855;BME280;9053;53.358;6.382;2022-10-16T12:25:32;101380.56;;;16.46;100.00
17855;BME280;9053;53.358;6.382;2022-10-16T12:28:16;101387.69;;;16.48;99.98
17855;BME280;9053;53.358;6.382;2022-10-16T12:30:53;101393.94;;;16.52;99.73
17855;BME280;9053;53.358;6.382;2022-10-16T12:33:25;101386.00;;;16.53;99.43
17855;BME280;9053;53.358;6.382;2022-10-16T12:35:56;101390.47;;;16.56;99.03
17855;BME280;9053;53.358;6.382;2022-10-16T12:38:30;101394.91;;;16.57;98.70
17855;BME280;9053;53.358;6.382;2022-10-16T12:41:06;101397.59;;;16.58;98.45
17855;BME280;9053;53.358;6.382;2022-10-16T12:43:42;101389.63;;;16.60;98.26
17855;BME280;9053;53.358;6.382;2022-10-16T12:49:21;101398.63;;;16.66;97.61
17855;BME280;9053;53.358;6.382;2022-10-16T12:51:52;101402.22;;;16.70;97.67
17855;BME280;9053;53.358;6.382;2022-10-16T12:54:27;101405.78;;;16.71;97.39
17855;BME280;9053;53.358;6.382;2022-10-16T12:57:24;101404.94;;;16.75;97.28
17855;BME280;9053;53.358;6.382;2022-10-16T13:00:13;101407.59;;;16.75;96.91
17855;BME280;9053;53.358;6.382;2022-10-16T13:02:58;101416.59;;;16.78;96.97
17855;BME280;9053;53.358;6.382;2022-10-16T13:05:46;101417.41;;;16.77;96.58
17855;BME280;9053;53.358;6.382;2022-10-16T13:08:39;101423.63;;;16.78;96.24
17855;BME280;9053;53.358;6.382;2022-10-16T13:11:17;101424.44;;;16.75;95.95
17855;BME280;9053;53.358;6.382;2022-10-16T13:14:06;101434.13;;;16.72;95.80
17855;BME280;9053;53.358;6.382;2022-10-16T13:16:51;101433.16;;;16.68;95.29
17855;BME280;9053;53.358;6.382;2022-10-16T13:19:31;101445.53;;;16.66;95.09
17855;BME280;9053;53.358;6.382;2022-10-16T13:22:06;101433.09;;;16.65;94.66
17855;BME280;9053;53.358;6.382;2022-10-16T13:24:51;101444.69;;;16.69;94.52
17855;BME280;9053;53.358;6.382;2022-10-16T13:27:31;101447.41;;;16.72;94.46
17855;BME280;9053;53.358;6.382;2022-10-16T13:30:11;101456.31;;;16.74;94.27
17855;BME280;9053;53.358;6.382;2022-10-16T13:32:48;101446.53;;;16.73;94.04
17855;BME280;9053;53.358;6.382;2022-10-16T13:35:21;101455.41;;;16.73;94.06